Time;durP1;ratioP1;P1;durP2;ratioP2;P2;SDS_P1;SDS_P2;PMS_P1;PMS_P2;Temp;Humidity;BMP_temperature;BMP_pressure;BME280_temperature;BME280_humidity;BME280_pressure;Samples;Min_cycle;Max_cycle;Signal;HPM_P1;HPM_P2
2023/06/09 00:00:26;;;;;;;10.23;2.85;;;;;;;23.34;41.84;100784.03;5021295;28;20046;-73
2023/06/09 00:02:55;;;;;;;9.85;2.85;;;;;;;23.43;42.88;100783.81;5021864;28;20119;-72
2023/06/09 00:05:23;;;;;;;11.82;3.08;;;;;;;23.54;41.27;100787.06;5021404;28;20054;-74
2023/06/09 00:07:55;;;;;;;8.02;3.65;;;;;;;23.60;40.52;100784.28;5020580;28;20562;-71
2023/06/09 00:10:34;;;;;;;10.20;3.03;;;;;;;23.67;39.63;100769.16;5016215;28;20046;-72
2023/06/09 00:13:03;;;;;;;9.98;3.50;;;;;;;23.69;39.89;100769.16;5018146;28;20053;-71
2023/06/09 00:15:31;;;;;;;7.40;2.55;;;;;;;23.80;41.53;100765.34;5011815;28;20065;-72
2023/06/09 00:18:02;;;;;;;13.20;2.97;;;;;;;23.86;40.89;100764.31;5016246;28;20045;-71
2023/06/09 00:20:34;;;;;;;9.43;2.70;;;;;;;23.95;42.02;100766.72;5020197;28;20115;-71
2023/06/09 00:23:03;;;;;;;13.05;2.97;;;;;;;24.02;42.56;100760.38;5019462;28;20056;-72
2023/06/09 00:25:33;;;;;;;6.63;2.88;;;;;;;24.04;43.79;100761.19;5019485;28;20053;-71
2023/06/09 00:28:02;;;;;;;8.75;3.00;;;;;;;24.03;41.65;100767.41;5016186;28;20057;-71
2023/06/09 00:30:33;;;;;;;8.55;2.88;;;;;;;24.06;42.18;100763.81;5016526;28;20045;-72
2023/06/09 00:33:02;;;;;;;9.60;2.50;;;;;;;24.04;42.36;100765.63;5019963;28;21224;-71
2023/06/09 00:35:30;;;;;;;7.53;2.80;;;;;;;23.94;41.83;100767.66;5023464;28;20608;-71
2023/06/09 00:37:59;;;;;;;10.15;3.10;;;;;;;23.92;40.68;100769.47;5025325;28;20045;-70
2023/06/09 00:40:28;;;;;;;9.65;3.08;;;;;;;23.94;40.35;100761.50;5029046;28;20045;-71
2023/06/09 00:43:01;;;;;;;8.32;3.05;;;;;;;23.90;44.55;100765.13;5016740;28;20046;-72
2023/06/09 00:45:30;;;;;;;8.73;2.97;;;;;;;23.85;41.19;100762.59;5021646;28;20049;-71
2023/06/09 00:47:58;;;;;;;10.10;3.15;;;;;;;23.81;40.90;100764.44;5023551;28;20495;-72
2023/06/09 00:50:27;;;;;;;8.45;2.75;;;;;;;23.82;42.02;100763.56;5016766;28;20100;-70
2023/06/09 00:52:57;;;;;;;9.75;2.47;;;;;;;23.76;42.52;100757.53;5014000;28;20494;-72
2023/06/09 00:55:29;;;;;;;8.73;2.83;;;;;;;23.64;42.11;100753.41;5019928;28;20049;-72
2023/06/09 00:58:01;;;;;;;6.53;2.30;;;;;;;23.56;43.53;100748.28;5024129;28;20046;-71
2023/06/09 01:00:31;;;;;;;9.45;2.80;;;;;;;23.51;44.57;100750.19;5022130;28;20053;-72
2023/06/09 01:03:10;;;;;;;7.78;3.17;;;;;;;23.52;42.31;100749.25;5025536;28;20203;-72
2023/06/09 01:05:39;;;;;;;12.98;2.72;;;;;;;23.57;42.93;100746.50;5017212;28;20045;-72
2023/06/09 01:08:16;;;;;;;9.85;2.67;;;;;;;23.55;45.21;100746.56;5017930;28;20057;-70
2023/06/09 01:10:51;;;;;;;7.82;2.95;;;;;;;23.49;45.21;100749.34;5022821;28;20690;-71
2023/06/09 01:13:30;;;;;;;12.25;3.03;;;;;;;23.46;43.54;100760.00;5024257;28;20513;-70
2023/06/09 01:16:05;;;;;;;9.35;2.90;;;;;;;23.47;43.48;100760.84;5012766;28;20143;-71
2023/06/09 01:18:36;;;;;;;14.40;3.53;;;;;;;23.47;43.25;100745.88;5011481;28;20672;-70
2023/06/09 01:21:12;;;;;;;11.83;2.97;;;;;;;23.51;43.79;100752.81;5016064;28;20129;-71
2023/06/09 01:23:51;;;;;;;10.32;3.08;;;;;;;23.55;47.34;100751.00;5016753;28;20290;-70
2023/06/09 01:26:23;;;;;;;9.90;3.17;;;;;;;23.51;44.88;100755.47;5021416;28;20046;-70
2023/06/09 01:28:52;;;;;;;10.35;3.13;;;;;;;23.43;44.02;100746.84;5015387;28;20607;-70
2023/06/09 01:31:22;;;;;;;12.48;3.15;;;;;;;23.36;45.12;100753.19;5019152;28;20057;-70
2023/06/09 01:33:51;;;;;;;13.57;3.63;;;;;;;23.29;42.72;100754.22;5022027;28;20100;-70
2023/06/09 01:36:20;;;;;;;11.82;3.60;;;;;;;23.25;43.38;100748.16;5023075;28;20561;-71
2023/06/09 01:38:48;;;;;;;10.50;3.20;;;;;;;23.27;44.63;100758.69;5024054;28;20442;-71
2023/06/09 01:41:17;;;;;;;12.73;3.22;;;;;;;23.31;44.42;100753.28;5021009;28;20052;-71
2023/06/09 01:43:47;;;;;;;10.75;3.05;;;;;;;23.35;45.31;100746.19;5024279;28;20045;-71
2023/06/09 01:46:16;;;;;;;8.93;3.15;;;;;;;23.35;46.64;100751.47;5021032;28;20045;-70
2023/06/09 01:48:53;;;;;;;11.93;3.10;;;;;;;23.30;47.63;100742.78;5019876;28;20053;-69
2023/06/09 01:51:31;;;;;;;11.30;3.28;;;;;;;23.25;46.43;100744.63;5017672;28;20053;-70
2023/06/09 01:54:06;;;;;;;14.52;3.42;;;;;;;23.26;45.58;100746.41;5024060;28;20065;-71
2023/06/09 01:56:44;;;;;;;11.00;2.88;;;;;;;23.33;45.27;100747.97;5019789;28;20499;-71
2023/06/09 01:59:19;;;;;;;9.55;2.85;;;;;;;23.33;46.72;100751.47;5022046;28;20100;-70
2023/06/09 02:01:49;;;;;;;10.65;2.88;;;;;;;23.36;45.20;100751.41;5022058;28;20057;-71
2023/06/09 02:04:19;;;;;;;10.43;3.00;;;;;;;23.41;45.38;100735.47;5022683;28;20046;-70
2023/06/09 02:06:48;;;;;;;11.57;3.65;;;;;;;23.44;43.89;100748.59;5020387;28;20443;-70
2023/06/09 02:09:17;;;;;;;15.18;3.35;;;;;;;23.47;44.24;100745.00;5016050;28;20148;-70
2023/06/09 02:11:52;;;;;;;10.13;2.67;;;;;;;23.49;44.45;100743.22;5016135;28;20046;-70
2023/06/09 02:14:22;;;;;;;12.15;3.25;;;;;;;23.54;44.25;100744.81;5020176;28;20049;-71
2023/06/09 02:16:53;;;;;;;10.98;3.30;;;;;;;23.54;44.22;100742.19;5020249;28;20072;-71
2023/06/09 02:19:22;;;;;;;11.20;2.92;;;;;;;23.51;45.15;100742.25;5024003;28;20045;-70
2023/06/09 02:21:50;;;;;;;12.65;3.00;;;;;;;23.48;44.99;100749.38;5028558;28;20067;-71
2023/06/09 02:24:22;;;;;;;9.35;2.90;;;;;;;23.48;45.03;100752.00;5019729;28;20058;-70
2023/06/09 02:26:52;;;;;;;11.98;2.72;;;;;;;23.48;45.31;100760.84;5022129;28;20105;-69
2023/06/09 02:29:22;;;;;;;9.52;3.05;;;;;;;23.39;44.93;100758.41;5027417;28;20078;-71
2023/06/09 02:31:51;;;;;;;10.88;3.17;;;;;;;23.30;45.22;100759.47;5028468;28;20046;-70
2023/06/09 02:34:20;;;;;;;8.88;3.00;;;;;;;23.19;45.88;100758.84;5024341;28;20053;-70
2023/06/09 02:36:49;;;;;;;12.13;3.58;;;;;;;23.16;46.02;100762.44;5027773;28;20511;-69
2023/06/09 02:39:19;;;;;;;11.07;3.20;;;;;;;23.16;46.03;100770.38;5025107;28;20412;-70
2023/06/09 02:41:48;;;;;;;10.68;3.55;;;;;;;23.18;46.09;100771.19;5023279;28;20156;-70
2023/06/09 02:44:17;;;;;;;16.05;3.08;;;;;;;23.17;46.24;100779.13;5031105;28;20048;-71
2023/06/09 02:46:47;;;;;;;15.45;3.25;;;;;;;23.15;46.27;100781.81;5026780;28;20045;-71
2023/06/09 02:49:16;;;;;;;11.55;3.53;;;;;;;23.11;46.57;100781.91;5027317;28;20782;-71
2023/06/09 02:51:47;;;;;;;15.23;3.65;;;;;;;23.02;47.19;100784.75;5025287;28;20486;-71
2023/06/09 02:54:16;;;;;;;10.33;3.23;;;;;;;22.94;47.66;100791.03;5026417;28;20127;-71
2023/06/09 02:56:44;;;;;;;10.05;3.00;;;;;;;22.86;47.71;100790.34;5035276;28;20684;-70
2023/06/09 02:59:13;;;;;;;8.90;3.47;;;;;;;22.77;48.54;100799.31;5025179;28;20042;-71
2023/06/09 03:01:42;;;;;;;12.10;3.60;;;;;;;22.69;48.34;100801.22;5020145;28;20114;-70
2023/06/09 03:04:12;;;;;;;8.65;3.08;;;;;;;22.62;48.86;100802.22;5019142;28;20095;-71
2023/06/09 03:06:43;;;;;;;11.32;3.60;;;;;;;22.57;48.68;100796.19;5018516;28;20492;-72
2023/06/09 03:09:12;;;;;;;13.25;3.00;;;;;;;22.52;49.33;100803.31;5026002;28;20525;-71
2023/06/09 03:11:41;;;;;;;10.68;2.80;;;;;;;22.48;49.56;100809.56;5024052;28;20049;-72
2023/06/09 03:14:13;;;;;;;9.45;3.03;;;;;;;22.43;49.64;100816.69;5024287;28;20053;-72
2023/06/09 03:16:41;;;;;;;;;;;;;;;22.40;50.35;100814.09;5024247;28;20042;-73
2023/06/09 03:19:10;;;;;;;11.07;3.15;;;;;;;22.33;50.26;100822.13;5021795;28;19925;-72
2023/06/09 03:21:43;;;;;;;14.05;2.78;;;;;;;22.27;50.56;100822.22;5019394;28;20050;-72
2023/06/09 03:24:12;;;;;;;12.32;2.60;;;;;;;22.25;50.37;100824.00;5021693;28;20693;-71
2023/06/09 03:26:40;;;;;;;10.32;3.30;;;;;;;22.22;50.57;100824.09;5024552;28;20050;-70
2023/06/09 03:29:09;;;;;;;9.70;3.05;;;;;;;22.15;50.70;100809.22;5024986;28;20053;-71
2023/06/09 03:31:37;;;;;;;8.70;3.20;;;;;;;22.16;50.92;100829.41;5025921;28;20068;-71
2023/06/09 03:34:06;;;;;;;9.55;3.08;;;;;;;22.14;51.47;100825.94;5012558;28;20104;-70
2023/06/09 03:36:36;;;;;;;15.77;3.10;;;;;;;22.08;51.79;100832.19;5021589;28;20053;-71
2023/06/09 03:39:06;;;;;;;8.35;3.38;;;;;;;22.03;52.39;100831.38;5026851;28;20045;-71
2023/06/09 03:41:35;;;;;;;9.05;2.92;;;;;;;21.98;52.31;100830.59;5034164;28;20131;-71
2023/06/09 03:44:03;;;;;;;14.10;3.20;;;;;;;21.95;52.88;100828.88;5027044;28;20061;-70
2023/06/09 03:46:32;;;;;;;10.63;3.75;;;;;;;21.88;54.70;100829.88;5021881;28;20052;-70
2023/06/09 03:49:01;;;;;;;8.05;2.75;;;;;;;21.82;55.08;100831.72;5024121;28;20103;-70
2023/06/09 03:51:29;;;;;;;11.40;3.00;;;;;;;21.72;54.94;100833.66;5020000;28;20049;-70
2023/06/09 03:53:58;;;;;;;8.00;2.38;;;;;;;21.62;56.37;100840.78;5020669;28;20553;-69
2023/06/09 03:56:28;;;;;;;7.03;2.58;;;;;;;21.49;55.50;100853.28;5018825;28;20050;-72
2023/06/09 03:58:57;;;;;;;8.23;2.03;;;;;;;21.43;55.82;100856.00;5022969;28;20111;-70
2023/06/09 04:01:25;;;;;;;6.95;2.20;;;;;;;21.45;54.83;100859.47;5017947;28;20857;-70
2023/06/09 04:03:55;;;;;;;4.68;1.48;;;;;;;21.46;54.54;100861.22;5009032;28;20223;-70
2023/06/09 04:06:23;;;;;;;4.28;1.48;;;;;;;21.47;54.03;100870.00;5021965;28;20104;-70
2023/06/09 04:08:53;;;;;;;7.85;1.75;;;;;;;21.46;54.65;100869.13;5025872;28;20049;-69
2023/06/09 04:11:21;;;;;;;3.25;1.30;;;;;;;21.45;53.61;100871.78;5023265;28;20665;-70
2023/06/09 04:13:52;;;;;;;6.60;1.33;;;;;;;21.44;53.04;100872.66;5028341;28;20045;-71
2023/06/09 04:16:21;;;;;;;5.45;1.38;;;;;;;21.39;53.37;100867.41;5020599;28;20050;-70
2023/06/09 04:18:49;;;;;;;5.50;1.20;;;;;;;21.34;53.37;100872.72;5021350;28;20050;-70
2023/06/09 04:21:19;;;;;;;3.83;1.30;;;;;;;21.27;52.54;100878.97;5017154;28;20447;-70
2023/06/09 04:23:48;;;;;;;2.45;1.00;;;;;;;21.21;52.02;100878.19;5015831;28;20115;-71
2023/06/09 04:26:16;;;;;;;4.05;1.20;;;;;;;21.13;52.54;100887.03;5022895;28;20487;-70
2023/06/09 04:28:45;;;;;;;4.65;0.90;;;;;;;21.09;51.77;100885.31;5022314;28;20099;-70
2023/06/09 04:31:18;;;;;;;4.30;1.20;;;;;;;21.05;52.34;100888.91;5021143;28;20930;-71
2023/06/09 04:33:48;;;;;;;8.25;1.55;;;;;;;21.02;52.09;100899.44;5020794;28;20136;-70
2023/06/09 04:36:17;;;;;;;3.25;1.27;;;;;;;21.01;52.85;100892.47;5025726;28;20041;-70
2023/06/09 04:38:46;;;;;;;3.13;1.02;;;;;;;21.00;52.60;100901.22;5024919;28;20073;-70
2023/06/09 04:41:17;;;;;;;4.68;1.20;;;;;;;20.89;52.58;100896.09;5020728;28;20121;-69
2023/06/09 04:43:49;;;;;;;4.28;1.38;;;;;;;20.73;52.50;100906.78;5026579;28;20136;-71
2023/06/09 04:46:19;;;;;;;;;;;;;;;20.65;53.16;100918.25;5030419;28;20066;-70
2023/06/09 04:48:49;;;;;;;5.35;1.30;;;;;;;20.60;53.10;100917.41;5026643;28;20425;-71
2023/06/09 04:51:19;;;;;;;1.85;0.98;;;;;;;20.56;53.63;100923.59;5020798;28;20059;-70
2023/06/09 04:53:48;;;;;;;6.38;1.30;;;;;;;20.48;53.95;100922.75;5024743;28;20070;-71
2023/06/09 04:56:17;;;;;;;5.72;1.15;;;;;;;20.41;54.06;100932.47;5028778;28;20053;-70
2023/06/09 04:58:46;;;;;;;3.60;1.02;;;;;;;20.34;54.65;100935.13;5022680;28;20813;-71
2023/06/09 05:01:15;;;;;;;5.47;1.13;;;;;;;20.21;55.02;100934.38;5025300;28;20072;-72
2023/06/09 05:03:45;;;;;;;3.20;1.13;;;;;;;20.13;55.35;100939.66;5020806;28;20054;-73
2023/06/09 05:06:13;;;;;;;4.43;1.10;;;;;;;20.01;54.44;100947.63;5026319;28;20072;-74
2023/06/09 05:08:42;;;;;;;11.02;1.63;;;;;;;19.87;55.75;100956.47;5024694;28;20054;-72
2023/06/09 05:11:11;;;;;;;3.88;1.08;;;;;;;19.68;55.43;100946.91;5026154;28;20042;-74
2023/06/09 05:13:39;;;;;;;6.43;1.45;;;;;;;19.61;55.83;100947.84;5026395;28;20085;-71
2023/06/09 05:16:08;;;;;;;2.97;1.00;;;;;;;19.55;55.66;100953.09;5022893;28;20057;-71
2023/06/09 05:18:37;;;;;;;1.13;0.70;;;;;;;19.45;55.14;100955.75;5026165;28;20076;-72
2023/06/09 05:21:07;;;;;;;3.05;1.08;;;;;;;19.37;54.47;100959.28;5024027;28;20065;-73
2023/06/09 05:23:35;;;;;;;4.13;1.15;;;;;;;19.27;54.30;100950.56;5027300;28;20052;-72
2023/06/09 05:26:04;;;;;;;2.05;0.88;;;;;;;19.21;54.07;100953.22;5023278;28;20091;-75
2023/06/09 05:28:32;;;;;;;3.78;1.02;;;;;;;19.13;53.98;100953.25;5023440;28;20053;-71
2023/06/09 05:31:01;;;;;;;2.88;0.80;;;;;;;19.05;53.76;100952.38;5023731;28;20087;-72
2023/06/09 05:33:33;;;;;;;7.10;1.20;;;;;;;19.02;54.28;100957.63;5022741;28;20392;-74
2023/06/09 05:36:01;;;;;;;2.65;1.08;;;;;;;18.94;54.33;100955.00;5024119;28;20174;-72
2023/06/09 05:38:32;;;;;;;5.95;1.20;;;;;;;18.83;54.18;100946.31;5022042;28;20407;-72
2023/06/09 05:41:00;;;;;;;4.65;1.38;;;;;;;18.73;54.85;100948.03;5023376;28;20037;-72
2023/06/09 05:43:29;;;;;;;1.58;0.85;;;;;;;18.61;54.74;100938.41;5020877;28;20049;-71
2023/06/09 05:45:59;;;;;;;8.52;1.98;;;;;;;18.45;55.43;100941.06;5026822;28;20045;-74
2023/06/09 05:48:28;;;;;;;4.18;0.93;;;;;;;18.39;55.75;100941.91;5023820;28;20662;-74
2023/06/09 05:50:59;;;;;;;5.07;0.82;;;;;;;18.32;56.37;100946.28;5023541;28;20041;-73
2023/06/09 05:53:27;;;;;;;4.60;1.23;;;;;;;18.22;56.39;100936.69;5023322;28;20050;-73
2023/06/09 05:55:58;;;;;;;3.35;1.17;;;;;;;18.18;56.13;100940.16;5024467;28;20049;-73
2023/06/09 05:58:27;;;;;;;4.22;1.17;;;;;;;18.13;57.17;100942.78;5030306;28;20049;-73
2023/06/09 06:00:57;;;;;;;6.03;1.27;;;;;;;18.03;57.24;100930.56;5028226;28;20125;-74
2023/06/09 06:03:26;;;;;;;4.22;1.02;;;;;;;18.03;57.14;100941.03;5027204;28;20118;-75
2023/06/09 06:05:55;;;;;;;3.75;0.95;;;;;;;17.89;57.80;100943.63;5021555;28;20045;-71
2023/06/09 06:08:23;;;;;;;5.30;0.70;;;;;;;17.79;58.00;100941.78;5023053;28;20045;-72
2023/06/09 06:10:54;;;;;;;3.53;1.13;;;;;;;17.73;58.50;100936.53;5026647;28;20045;-70
2023/06/09 06:13:24;;;;;;;2.00;0.75;;;;;;;17.65;59.08;100938.25;5027190;28;20046;-71
2023/06/09 06:15:53;;;;;;;3.30;0.82;;;;;;;17.56;59.08;100939.09;5025453;28;20435;-72
2023/06/09 06:18:22;;;;;;;3.72;1.05;;;;;;;17.50;59.69;100939.97;5027323;28;20111;-71
2023/06/09 06:20:52;;;;;;;4.90;1.23;;;;;;;17.49;59.37;100939.94;5022498;28;20044;-71
2023/06/09 06:23:21;;;;;;;6.07;1.02;;;;;;;17.49;59.94;100942.56;5025109;28;20108;-70
2023/06/09 06:25:50;;;;;;;2.90;1.08;;;;;;;17.49;59.99;100950.41;5025174;28;20487;-71
2023/06/09 06:28:19;;;;;;;5.72;1.48;;;;;;;17.48;60.32;100951.28;5025596;28;20616;-71
2023/06/09 06:30:49;;;;;;;4.90;0.98;;;;;;;17.44;60.28;100949.53;5026036;28;20305;-71
2023/06/09 06:33:18;;;;;;;3.53;1.10;;;;;;;17.42;60.73;100951.25;5025693;28;20069;-72
2023/06/09 06:35:47;;;;;;;5.55;1.20;;;;;;;17.40;60.63;100953.00;5023949;28;20049;-72
2023/06/09 06:38:16;;;;;;;4.25;1.15;;;;;;;17.32;60.92;100961.69;5026333;28;20053;-71
2023/06/09 06:40:45;;;;;;;2.72;1.13;;;;;;;17.25;61.87;100959.91;5026686;28;20049;-72
2023/06/09 06:43:13;;;;;;;2.70;1.35;;;;;;;17.21;61.47;100967.72;5023619;28;20125;-71
2023/06/09 06:45:44;;;;;;;2.90;0.90;;;;;;;17.15;61.35;100964.19;5028369;28;20045;-71
2023/06/09 06:48:15;;;;;;;3.15;0.82;;;;;;;17.13;61.32;100965.94;5023801;28;21269;-71
2023/06/09 06:50:43;;;;;;;2.92;1.00;;;;;;;17.09;61.02;100968.53;5023490;28;20060;-72
2023/06/09 06:53:12;;;;;;;3.25;1.17;;;;;;;17.00;61.28;100973.69;5025951;28;20033;-72
2023/06/09 06:55:41;;;;;;;2.60;0.82;;;;;;;16.93;61.50;100968.41;5026082;28;20118;-72
2023/06/09 06:58:09;;;;;;;4.25;1.00;;;;;;;16.91;61.41;100970.16;5028585;28;20057;-70
2023/06/09 07:00:38;;;;;;;5.22;1.00;;;;;;;16.93;61.89;100981.50;5022896;28;20057;-71
2023/06/09 07:03:09;;;;;;;5.35;1.15;;;;;;;16.89;61.38;100969.25;5019477;28;20137;-70
2023/06/09 07:05:39;;;;;;;2.13;0.85;;;;;;;16.82;61.46;100964.84;5026388;28;20056;-71
2023/06/09 07:08:07;;;;;;;2.20;0.80;;;;;;;16.86;61.77;100981.41;5022680;28;20053;-71
2023/06/09 07:10:36;;;;;;;4.47;0.70;;;;;;;16.87;62.08;100970.97;5027570;28;20569;-71
2023/06/09 07:13:12;;;;;;;4.72;0.90;;;;;;;16.85;63.01;100970.09;5025447;28;20115;-72
2023/06/09 07:15:41;;;;;;;3.38;1.10;;;;;;;16.81;62.76;100973.53;5028414;28;20081;-71
2023/06/09 07:18:09;;;;;;;3.00;0.77;;;;;;;16.76;63.46;100968.25;5026046;28;20046;-70
2023/06/09 07:20:40;;;;;;;1.73;1.10;;;;;;;16.72;63.17;100970.81;5026203;28;20056;-70
2023/06/09 07:23:08;;;;;;;2.40;0.93;;;;;;;16.70;62.86;100975.19;5018295;28;20052;-70
2023/06/09 07:25:37;;;;;;;4.68;0.90;;;;;;;16.67;64.15;100976.00;5026505;28;20041;-70
2023/06/09 07:28:06;;;;;;;2.25;0.90;;;;;;;16.63;63.05;100973.38;5021985;28;20050;-71
2023/06/09 07:30:34;;;;;;;2.83;0.80;;;;;;;16.62;62.85;100969.03;5022875;28;20046;-70
2023/06/09 07:33:05;;;;;;;1.75;0.65;;;;;;;16.64;63.15;100975.13;5028253;28;20046;-70
2023/06/09 07:35:33;;;;;;;1.33;0.70;;;;;;;16.66;63.77;100973.41;5023991;28;20049;-70
2023/06/09 07:38:04;;;;;;;3.55;1.02;;;;;;;16.66;63.46;100973.41;5023253;28;20493;-71
2023/06/09 07:40:32;;;;;;;5.05;1.10;;;;;;;16.61;63.06;100969.91;5023107;28;20061;-70
2023/06/09 07:43:02;;;;;;;1.50;0.60;;;;;;;16.55;63.34;100968.97;5026517;28;20527;-70
2023/06/09 07:45:31;;;;;;;2.97;0.73;;;;;;;16.50;64.56;100970.66;5021653;28;20053;-70
2023/06/09 07:47:59;;;;;;;3.00;0.95;;;;;;;16.43;64.25;100970.59;5025181;28;20236;-70
2023/06/09 07:50:28;;;;;;;5.20;0.90;;;;;;;16.37;64.53;100965.31;5024892;28;20049;-70
2023/06/09 07:52:56;;;;;;;4.03;1.08;;;;;;;16.39;65.20;100963.59;5023615;28;20538;-69
2023/06/09 07:55:27;;;;;;;5.15;1.10;;;;;;;16.34;65.00;100971.41;5025121;28;20571;-71
2023/06/09 07:57:55;;;;;;;2.88;0.77;;;;;;;16.22;65.20;100966.06;5017428;28;20145;-70
2023/06/09 08:00:24;;;;;;;2.00;0.70;;;;;;;16.15;65.14;100970.34;5023726;28;20049;-70
2023/06/09 08:03:00;;;;;;;3.50;1.02;;;;;;;16.08;65.40;100979.84;5022391;28;20511;-70
2023/06/09 08:05:29;;;;;;;4.18;0.82;;;;;;;16.03;66.21;100971.06;5024267;28;20057;-71
2023/06/09 08:07:57;;;;;;;7.82;1.08;;;;;;;15.96;66.24;100973.59;5017840;28;20502;-72
2023/06/09 08:10:27;;;;;;;3.60;0.90;;;;;;;15.85;66.11;100970.88;5024151;28;20116;-70
2023/06/09 08:12:56;;;;;;;3.00;1.08;;;;;;;15.80;66.83;100975.16;5021289;28;20643;-70
2023/06/09 08:15:24;;;;;;;3.13;1.33;;;;;;;15.76;67.38;100973.38;5019469;28;20605;-71
2023/06/09 08:17:55;;;;;;;1.45;0.80;;;;;;;15.72;67.16;100976.84;5023622;28;20488;-70
2023/06/09 08:20:24;;;;;;;2.38;0.90;;;;;;;15.68;67.39;100979.34;5022109;28;20049;-70
2023/06/09 08:22:52;;;;;;;2.80;0.70;;;;;;;15.67;67.67;100985.44;5023552;28;20527;-71
2023/06/09 08:25:21;;;;;;;3.97;0.90;;;;;;;15.64;67.06;100980.16;5016642;28;20129;-70
2023/06/09 08:27:51;;;;;;;2.58;0.98;;;;;;;15.62;67.38;100976.69;5022563;28;20102;-69
2023/06/09 08:30:19;;;;;;;1.75;0.80;;;;;;;15.61;67.89;100985.34;5025240;28;20053;-70
2023/06/09 08:32:48;;;;;;;0.70;0.57;;;;;;;15.59;67.66;100987.06;5023135;28;20053;-69
2023/06/09 08:35:17;;;;;;;5.32;1.10;;;;;;;15.57;66.98;100988.78;5020833;28;20447;-69
2023/06/09 08:37:46;;;;;;;4.25;1.17;;;;;;;15.54;66.90;100991.34;5024225;28;20545;-70
2023/06/09 08:40:15;;;;;;;2.03;0.80;;;;;;;15.50;67.72;100989.56;5023666;28;20128;-69
2023/06/09 08:42:48;;;;;;;4.70;1.10;;;;;;;15.47;67.51;100999.94;5020112;28;20111;-70
2023/06/09 08:45:23;;;;;;;5.43;1.30;;;;;;;15.43;67.81;100995.53;5023569;28;20077;-70
2023/06/09 08:47:55;;;;;;;3.83;1.00;;;;;;;15.40;67.21;100993.78;5023824;28;20084;-70
2023/06/09 08:50:28;;;;;;;1.42;0.80;;;;;;;15.33;68.00;101001.50;5024005;28;20065;-70
2023/06/09 08:53:20;;;;;;;2.90;0.90;;;;;;;15.31;67.39;100998.00;5014922;28;20049;-69
2023/06/09 08:55:53;;;;;;;3.05;0.95;;;;;;;15.27;68.95;101008.34;5014463;28;20049;-71
2023/06/09 08:58:22;;;;;;;;;;;;;;;15.25;68.22;101010.06;5024186;28;20057;-71
2023/06/09 09:00:55;;;;;;;2.05;0.80;;;;;;;15.25;67.94;101007.47;5020261;28;20014;-70
2023/06/09 09:03:24;;;;;;;1.17;0.63;;;;;;;15.22;67.90;101012.63;5021870;28;20068;-70
2023/06/09 09:05:53;;;;;;;3.17;1.08;;;;;;;15.20;68.02;101006.53;5020552;28;20045;-71
2023/06/09 09:08:23;;;;;;;6.97;1.00;;;;;;;15.20;68.50;101009.13;5022714;28;20055;-71
2023/06/09 09:10:56;;;;;;;2.67;1.08;;;;;;;15.16;67.96;101009.94;5021267;28;20057;-71
2023/06/09 09:13:31;;;;;;;1.52;0.63;;;;;;;15.15;67.71;101010.81;5022725;28;20136;-70
2023/06/09 09:16:18;;;;;;;1.88;1.00;;;;;;;15.17;67.44;101018.66;5019500;28;20511;-70
2023/06/09 09:18:49;;;;;;;2.70;0.90;;;;;;;15.19;67.96;101014.34;5021433;28;20076;-71
2023/06/09 09:21:24;;;;;;;2.80;1.00;;;;;;;15.17;67.15;101019.53;5019487;28;20129;-71
2023/06/09 09:24:01;;;;;;;5.35;1.08;;;;;;;15.16;67.08;101025.56;5021958;28;20049;-71
2023/06/09 09:26:30;;;;;;;2.15;0.80;;;;;;;15.16;67.34;101027.31;5022417;28;20617;-71
2023/06/09 09:29:02;;;;;;;3.42;1.00;;;;;;;15.14;67.51;101026.41;5025241;28;20061;-72
2023/06/09 09:31:38;;;;;;;1.98;0.80;;;;;;;15.15;67.81;101023.84;5024554;28;20049;-71
2023/06/09 09:34:11;;;;;;;3.67;1.13;;;;;;;15.17;67.51;101027.34;5028335;28;20054;-71
2023/06/09 09:36:43;;;;;;;4.35;0.80;;;;;;;15.19;67.00;101030.84;5029725;28;20061;-71
2023/06/09 09:39:12;;;;;;;5.95;1.27;;;;;;;15.22;66.95;101028.28;5027754;28;20053;-71
2023/06/09 09:42:01;;;;;;;2.33;0.82;;;;;;;15.21;66.35;101023.03;5024941;28;20050;-71
2023/06/09 09:44:37;;;;;;;3.28;1.30;;;;;;;15.22;66.82;101035.22;5020454;28;20120;-71
2023/06/09 09:47:09;;;;;;;2.88;1.30;;;;;;;15.24;68.15;101029.19;5028272;28;20076;-71
2023/06/09 09:49:38;;;;;;;5.28;1.88;;;;;;;15.27;67.59;101026.59;5021230;28;20108;-71
2023/06/09 09:52:08;;;;;;;2.85;1.05;;;;;;;15.31;67.45;101030.16;5027412;28;20045;-71
2023/06/09 09:54:38;;;;;;;4.38;1.42;;;;;;;15.31;65.81;101029.28;5025612;28;20058;-71
2023/06/09 09:57:08;;;;;;;1.95;0.95;;;;;;;15.31;65.43;101027.53;5024009;28;20045;-71
2023/06/09 09:59:36;;;;;;;3.88;0.88;;;;;;;15.35;66.37;101025.88;5024615;28;20046;-70
2023/06/09 10:02:09;;;;;;;5.82;1.20;;;;;;;15.33;67.98;101033.66;5027379;28;20041;-71
2023/06/09 10:04:38;;;;;;;4.47;0.93;;;;;;;15.33;67.25;101030.19;5025735;28;20076;-71
2023/06/09 10:07:07;;;;;;;3.13;1.42;;;;;;;15.35;67.12;101031.97;5023739;28;20050;-71
2023/06/09 10:09:37;;;;;;;2.30;1.13;;;;;;;15.37;66.57;101030.25;5026027;28;20107;-71
2023/06/09 10:12:07;;;;;;;2.17;0.93;;;;;;;15.39;67.09;101030.25;5025110;28;20049;-71
2023/06/09 10:14:36;;;;;;;1.98;1.20;;;;;;;15.40;66.61;101024.19;5024132;28;20072;-71
2023/06/09 10:17:09;;;;;;;2.58;0.95;;;;;;;15.42;67.13;101028.56;5021778;28;20049;-71
2023/06/09 10:19:38;;;;;;;2.85;0.73;;;;;;;15.40;65.76;101029.41;5025793;28;20045;-71
2023/06/09 10:22:07;;;;;;;3.67;1.20;;;;;;;15.40;66.38;101024.19;5026414;28;20403;-71
2023/06/09 10:24:36;;;;;;;2.95;1.20;;;;;;;15.41;66.46;101025.94;5020233;28;20100;-71
2023/06/09 10:27:06;;;;;;;2.95;0.90;;;;;;;15.42;67.66;101022.50;5021193;28;20092;-71
2023/06/09 10:29:35;;;;;;;2.50;0.80;;;;;;;15.44;67.29;101020.78;5020811;28;20053;-71
2023/06/09 10:32:05;;;;;;;5.75;1.15;;;;;;;15.44;67.29;101026.88;5029201;28;20045;-71
2023/06/09 10:34:37;;;;;;;3.78;1.33;;;;;;;15.46;67.38;101030.38;5002707;28;20050;-71
2023/06/09 10:37:06;;;;;;;4.35;1.17;;;;;;;15.47;66.61;101031.25;5006001;28;20104;-71
2023/06/09 10:39:51;;;;;;;2.00;0.98;;;;;;;15.44;66.88;101026.00;5002178;28;20418;-71
2023/06/09 10:42:43;;;;;;;2.65;0.80;;;;;;;15.42;67.49;101019.88;5006433;28;20056;-71
2023/06/09 10:45:15;;;;;;;2.58;0.90;;;;;;;15.42;67.97;101023.34;5005321;28;20045;-71
2023/06/09 10:47:50;;;;;;;2.88;1.05;;;;;;;15.43;66.92;101012.06;5006558;28;20050;-71
2023/06/09 10:50:31;;;;;;;5.45;1.00;;;;;;;15.47;67.74;101020.81;5004239;28;20147;-71
2023/06/09 10:53:00;;;;;;;9.52;1.48;;;;;;;15.47;67.20;101013.00;5001003;28;20129;-71
2023/06/09 10:55:30;;;;;;;5.28;1.15;;;;;;;15.48;66.41;101015.63;5005748;28;20104;-71
2023/06/09 10:57:59;;;;;;;5.10;1.27;;;;;;;15.49;66.10;101013.88;5006465;28;20050;-71
2023/06/09 11:00:47;;;;;;;3.08;1.25;;;;;;;15.49;66.02;101019.09;5005154;28;20053;-72
2023/06/09 11:03:32;;;;;;;3.28;0.70;;;;;;;15.45;67.38;101006.88;5003763;28;20112;-72
2023/06/09 11:06:03;;;;;;;5.38;1.58;;;;;;;15.38;68.10;101018.94;4999693;28;20158;-73
2023/06/09 11:09:18;;;;;;;3.00;1.00;;;;;;;15.33;69.23;101018.00;4998108;28;20111;-72
2023/06/09 11:11:50;;;;;;;3.10;1.10;;;;;;;15.34;70.44;101018.88;4942945;28;20050;-73
2023/06/09 11:14:56;;;;;;;1.08;0.95;;;;;;;15.32;70.98;101018.84;4944074;28;20162;-72
2023/06/09 11:17:26;;;;;;;4.38;1.40;;;;;;;15.31;72.56;101016.25;4986171;28;20057;-74
2023/06/09 11:20:11;;;;;;;3.88;0.93;;;;;;;15.26;72.94;101022.25;5004856;28;20747;-73
2023/06/09 11:25:47;;;;;;;9.32;1.58;;;;;;;15.18;74.68;101029.09;4733147;27;9494015;-74
2023/06/09 11:28:24;;;;;;;3.55;1.17;;;;;;;15.16;74.90;101019.50;5063914;28;20538;-73
2023/06/09 11:31:08;;;;;;;1.98;1.00;;;;;;;15.13;75.95;101015.13;5059327;28;20053;-72
2023/06/09 11:33:46;;;;;;;5.15;1.10;;;;;;;15.10;77.18;101025.50;5062035;28;20084;-73
2023/06/09 11:36:21;;;;;;;5.60;1.00;;;;;;;15.03;78.47;101018.44;5061516;28;20041;-73
2023/06/09 11:38:51;;;;;;;6.22;1.45;;;;;;;14.96;79.07;101020.06;5057254;28;20055;-73
2023/06/09 11:41:26;;;;;;;2.45;1.17;;;;;;;14.86;79.33;101020.75;5059678;28;20056;-73
2023/06/09 11:43:56;;;;;;;4.80;1.00;;;;;;;14.78;79.17;101023.25;5059674;28;20067;-73